createdAt,value
2022-09-01T00:01:29.454Z,20.40
2022-09-01T00:05:32.386Z,20.40
2022-09-01T00:09:34.516Z,20.30
2022-09-01T00:13:35.837Z,20.30
2022-09-01T00:17:37.572Z,20.30
2022-09-01T00:21:42.405Z,20.40
2022-09-01T00:25:43.908Z,20.20
2022-09-01T00:29:45.131Z,20.20
2022-09-01T00:33:47.671Z,20.00
2022-09-01T00:37:48.818Z,19.80
2022-09-01T00:41:50.678Z,19.80
2022-09-01T00:45:52.181Z,19.80
2022-09-01T00:49:53.601Z,19.70
2022-09-01T00:53:56.658Z,19.60
2022-09-01T00:58:00.705Z,19.50
2022-09-01T01:02:02.017Z,19.50
2022-09-01T01:06:07.693Z,19.50
2022-09-01T01:10:11.677Z,19.60
2022-09-01T01:14:16.610Z,19.50
2022-09-01T01:18:23.688Z,19.50
2022-09-01T01:22:46.446Z,19.60
2022-09-01T01:26:47.790Z,19.40
2022-09-01T01:30:52.447Z,19.00
2022-09-01T01:34:53.884Z,18.90
2022-09-01T01:38:57.052Z,18.80
2022-09-01T01:43:00.799Z,18.70
2022-09-01T01:47:05.737Z,18.70
2022-09-01T01:51:08.176Z,18.70
2022-09-01T01:55:11.725Z,18.70
2022-09-01T01:59:14.148Z,18.70
2022-09-01T02:03:18.371Z,18.70
2022-09-01T02:07:19.510Z,18.70
2022-09-01T02:11:21.214Z,18.80
2022-09-01T02:15:22.357Z,18.80
2022-09-01T02:19:23.492Z,18.90
2022-09-01T02:23:25.038Z,18.80
2022-09-01T02:27:28.488Z,18.70
2022-09-01T02:31:31.540Z,18.70
2022-09-01T02:35:33.668Z,18.70
2022-09-01T02:39:34.885Z,18.70
2022-09-01T02:43:36.130Z,18.70
2022-09-01T02:47:41.052Z,18.80
2022-09-01T02:51:44.495Z,18.80
2022-09-01T02:55:45.698Z,18.90
2022-09-01T02:59:47.773Z,18.90
2022-09-01T03:03:50.781Z,18.80
2022-09-01T03:07:55.834Z,18.80
2022-09-01T03:11:58.061Z,18.80
2022-09-01T03:15:59.273Z,18.90
2022-09-01T03:20:00.649Z,18.80
2022-09-01T03:24:03.276Z,18.50
2022-09-01T03:28:05.412Z,18.30
2022-09-01T03:32:06.690Z,18.20
2022-09-01T03:36:14.815Z,18.10
2022-09-01T03:40:12.442Z,18.20
2022-09-01T03:44:15.763Z,18.00
2022-09-01T03:48:17.288Z,18.20
2022-09-01T03:52:18.535Z,18.10
2022-09-01T03:56:21.042Z,18.30
2022-09-01T04:00:24.864Z,18.30
2022-09-01T04:04:26.504Z,18.10
2022-09-01T04:08:32.555Z,18.30
2022-09-01T04:12:35.729Z,18.10
2022-09-01T04:16:55.636Z,18.10
2022-09-01T04:20:58.837Z,18.20
2022-09-01T04:25:00.056Z,18.00
2022-09-01T04:29:02.017Z,17.90
2022-09-01T04:33:03.255Z,17.70
2022-09-01T04:37:12.332Z,17.80
2022-09-01T04:41:16.960Z,17.90
2022-09-01T04:45:20.890Z,17.90
2022-09-01T04:49:23.475Z,17.90
2022-09-01T04:53:24.628Z,17.80
2022-09-01T04:57:28.577Z,17.60
2022-09-01T05:01:29.890Z,17.70
2022-09-01T05:05:43.451Z,17.60
2022-09-01T05:09:44.990Z,17.70
2022-09-01T05:13:48.596Z,17.80
2022-09-01T05:17:51.733Z,17.70
2022-09-01T05:21:54.843Z,17.70
2022-09-01T05:25:56.584Z,17.80
2022-09-01T05:29:59.781Z,17.70
2022-09-01T05:34:02.605Z,17.70
2022-09-01T05:38:04.225Z,17.80
2022-09-01T05:42:10.190Z,17.70
2022-09-01T05:46:11.957Z,17.70
2022-09-01T05:50:15.057Z,17.80
2022-09-01T05:54:18.288Z,17.90
2022-09-01T05:58:21.041Z,17.90
2022-09-01T06:02:23.337Z,18.10
2022-09-01T06:06:27.861Z,18.00
2022-09-01T06:10:29.903Z,18.30
2022-09-01T06:14:31.115Z,18.40
2022-09-01T06:18:33.722Z,18.30
2022-09-01T06:22:34.947Z,18.30
2022-09-01T06:26:38.295Z,18.40
2022-09-01T06:30:40.123Z,18.80
2022-09-01T06:34:43.972Z,19.00
2022-09-01T06:38:46.398Z,18.90
2022-09-01T06:42:50.825Z,19.10
2022-09-01T06:46:52.536Z,19.50
2022-09-01T06:54:57.084Z,19.90
2022-09-01T07:03:04.098Z,19.90
2022-09-01T07:12:08.287Z,20.30
2022-09-01T07:19:48.261Z,20.70
2022-09-01T07:23:46.499Z,20.90
2022-09-01T07:27:40.659Z,21.10
2022-09-01T07:36:25.589Z,21.30
2022-09-01T07:42:31.771Z,21.30
2022-09-01T07:43:52.421Z,21.60
2022-09-01T07:47:54.328Z,21.70
2022-09-01T07:51:56.209Z,21.80
2022-09-01T07:56:02.442Z,21.90
2022-09-01T08:00:06.067Z,22.10
2022-09-01T08:04:07.347Z,22.50
2022-09-01T08:08:28.715Z,22.50
2022-09-01T08:12:12.320Z,22.20
2022-09-01T08:16:18.018Z,22.10
2022-09-01T08:20:17.794Z,22.40
2022-09-01T08:24:19.172Z,22.90
2022-09-01T08:28:26.517Z,22.90
2022-09-01T08:32:23.408Z,23.10
2022-09-01T08:36:25.940Z,23.00
2022-09-01T08:40:27.568Z,22.80
2022-09-01T08:44:50.925Z,22.70
2022-09-01T08:53:10.067Z,22.80
2022-09-01T08:57:19.752Z,22.70
2022-09-01T09:01:27.406Z,22.90
2022-09-01T09:05:58.556Z,23.10
2022-09-01T09:10:14.354Z,23.40
2022-09-01T09:14:34.983Z,23.90
2022-09-01T09:19:12.063Z,24.10
2022-09-01T09:23:20.292Z,24.80
2022-09-01T09:27:38.165Z,24.80
2022-09-01T09:31:46.265Z,24.90
2022-09-01T09:35:47.692Z,24.90
2022-09-01T09:40:16.442Z,25.10
2022-09-01T09:44:29.261Z,24.30
2022-09-01T09:48:32.208Z,24.10
2022-09-01T09:52:33.581Z,24.10
2022-09-01T09:56:36.096Z,24.60
2022-09-01T10:00:38.537Z,25.30
2022-09-01T10:04:40.775Z,25.80
2022-09-01T10:08:45.461Z,26.60
2022-09-01T10:12:46.949Z,26.80
2022-09-01T10:16:52.361Z,27.70
2022-09-01T10:21:05.454Z,27.90
2022-09-01T10:25:11.054Z,28.30
2022-09-01T10:29:19.110Z,28.10
2022-09-01T10:33:22.233Z,27.20
2022-09-01T10:37:27.378Z,26.90
2022-09-01T11:06:11.439Z,25.70
2022-09-01T11:10:36.540Z,25.60
2022-09-01T11:14:28.667Z,25.50
2022-09-01T11:18:30.805Z,25.10
2022-09-01T11:22:44.935Z,25.80
2022-09-01T11:26:47.980Z,25.50
2022-09-01T11:31:02.304Z,26.30
2022-09-01T11:35:07.396Z,26.50
2022-09-01T11:39:26.683Z,25.90
2022-09-01T11:43:30.345Z,26.10
2022-09-01T11:47:44.429Z,26.70
2022-09-01T11:51:47.278Z,27.80
2022-09-01T11:55:51.497Z,28.60
2022-09-01T11:59:53.350Z,28.70
2022-09-01T12:03:54.582Z,28.80
2022-09-01T12:07:57.009Z,28.70
2022-09-01T12:11:58.539Z,29.00
2022-09-01T12:16:21.768Z,27.30
2022-09-01T12:20:29.265Z,27.30
2022-09-01T12:24:36.460Z,27.60
2022-09-01T12:28:40.883Z,27.70
2022-09-01T12:32:42.827Z,27.50
2022-09-01T12:36:47.842Z,27.70
2022-09-01T12:40:53.267Z,27.60
2022-09-01T12:45:00.944Z,27.80
2022-09-01T12:49:24.428Z,27.40
2022-09-01T12:53:30.576Z,27.10
2022-09-01T12:57:37.542Z,26.80
2022-09-01T13:01:41.274Z,27.00
2022-09-01T13:05:46.517Z,27.00
2022-09-01T13:09:47.770Z,26.90
2022-09-01T13:13:49.005Z,26.70
2022-09-01T13:17:50.540Z,27.00
2022-09-01T13:21:51.780Z,27.00
2022-09-01T13:25:53.752Z,27.10
2022-09-01T13:29:55.082Z,26.90
2022-09-01T13:34:22.143Z,26.50
2022-09-01T13:38:00.937Z,26.30
2022-09-01T13:42:02.359Z,26.10
2022-09-01T13:46:03.717Z,26.00
2022-09-01T13:50:08.548Z,25.90
2022-09-01T13:54:09.271Z,26.00
2022-09-01T13:58:11.642Z,26.40
2022-09-01T14:02:12.866Z,26.80
2022-09-01T14:06:14.698Z,26.70
2022-09-01T14:10:17.433Z,26.60
2022-09-01T14:14:18.670Z,26.50
2022-09-01T14:18:21.151Z,26.30
2022-09-01T14:22:22.480Z,26.60
2022-09-01T14:26:23.729Z,27.10
2022-09-01T14:30:31.479Z,27.60
2022-09-01T14:34:36.847Z,27.80
2022-09-01T14:38:38.194Z,27.80
2022-09-01T14:42:39.443Z,27.50
2022-09-01T14:46:40.869Z,27.50
2022-09-01T14:50:44.931Z,28.00
2022-09-01T14:54:46.288Z,28.10
2022-09-01T14:58:48.825Z,28.40
2022-09-01T15:02:50.464Z,28.10
2022-09-01T15:06:51.837Z,27.80
2022-09-01T15:10:53.065Z,28.00
2022-09-01T15:14:54.295Z,27.30
2022-09-01T15:18:55.558Z,27.80
2022-09-01T15:22:56.899Z,27.50
2022-09-01T15:26:58.117Z,28.00
2022-09-01T15:30:59.461Z,28.10
2022-09-01T15:35:00.692Z,28.30
2022-09-01T15:39:02.227Z,28.20
2022-09-01T15:43:04.969Z,27.90
2022-09-01T15:47:06.239Z,27.50
2022-09-01T15:51:23.594Z,27.30
2022-09-01T15:55:46.523Z,27.30
2022-09-01T15:59:47.844Z,27.30
2022-09-01T16:03:50.223Z,27.30
2022-09-01T16:07:52.296Z,27.00
2022-09-01T16:11:53.797Z,26.80
2022-09-01T16:16:01.473Z,26.80
2022-09-01T16:20:10.321Z,26.50
2022-09-01T16:24:13.248Z,26.20
2022-09-01T16:28:30.393Z,25.90
2022-09-01T16:32:33.032Z,25.80
2022-09-01T16:36:38.555Z,25.90
2022-09-01T16:40:46.516Z,25.90
2022-09-01T16:45:03.209Z,26.00
2022-09-01T16:49:29.262Z,26.00
2022-09-01T16:53:55.453Z,25.80
2022-09-01T16:58:12.685Z,25.50
2022-09-01T17:02:17.728Z,25.40
2022-09-01T17:06:38.276Z,25.40
2022-09-01T17:10:53.481Z,25.20
2022-09-01T17:15:10.886Z,25.00
2022-09-01T17:19:18.191Z,24.80
2022-09-01T17:23:29.071Z,24.70
2022-09-01T17:27:42.230Z,24.70
2022-09-01T17:31:47.761Z,24.70
2022-09-01T17:36:13.905Z,24.70
2022-09-01T17:40:39.515Z,24.80
2022-09-01T17:44:47.804Z,24.90
2022-09-01T17:48:56.310Z,24.70
2022-09-01T17:53:13.427Z,24.60
2022-09-01T17:57:24.078Z,24.80
2022-09-01T18:01:49.091Z,24.70
2022-09-01T18:06:05.879Z,24.90
2022-09-01T18:10:09.937Z,24.90
2022-09-01T18:14:23.563Z,24.80
2022-09-01T18:18:40.524Z,24.40
2022-09-01T18:22:48.765Z,24.40
2022-09-01T18:26:50.865Z,24.30
2022-09-01T18:31:05.036Z,24.20
2022-09-01T18:35:25.502Z,24.10
2022-09-01T18:39:47.016Z,24.00
2022-09-01T18:43:52.382Z,23.80
2022-09-01T18:48:20.423Z,23.70
2022-09-01T18:52:28.584Z,23.70
2022-09-01T18:56:45.736Z,23.60
2022-09-01T19:00:52.191Z,24.00
2022-09-01T19:05:00.001Z,24.00
2022-09-01T19:09:17.313Z,23.90
2022-09-01T19:13:34.121Z,24.00
2022-09-01T19:18:03.839Z,24.00
2022-09-01T19:22:05.148Z,24.00
2022-09-01T19:26:10.800Z,23.90
2022-09-01T19:30:12.099Z,23.50
2022-09-01T19:34:20.057Z,23.20
2022-09-01T19:38:27.203Z,22.80
2022-09-01T19:42:35.292Z,22.60
2022-09-01T19:46:47.508Z,22.60
2022-09-01T19:50:58.533Z,22.60
2022-09-01T19:55:15.775Z,22.50
2022-09-01T19:59:37.892Z,22.70
2022-09-01T20:03:42.921Z,22.90
2022-09-01T20:07:57.344Z,22.90
2022-09-01T20:12:08.375Z,22.90
2022-09-01T20:16:40.950Z,22.80
2022-09-01T20:20:45.988Z,22.60
2022-09-01T20:24:47.316Z,22.00
2022-09-01T20:29:20.659Z,21.70
2022-09-01T20:33:26.393Z,21.70
2022-09-01T20:37:41.741Z,21.70
2022-09-01T20:41:48.581Z,21.60
2022-09-01T20:45:50.247Z,21.40
2022-09-01T20:49:51.544Z,21.30
2022-09-01T20:54:02.579Z,21.10
2022-09-01T20:58:13.555Z,20.90
2022-09-01T21:02:21.724Z,20.70
2022-09-01T21:06:53.840Z,20.70
2022-09-01T21:11:17.169Z,20.60
2022-09-01T21:15:38.816Z,20.50
2022-09-01T21:19:55.916Z,20.30
2022-09-01T21:23:57.139Z,20.40
2022-09-01T21:28:01.491Z,20.40
2022-09-01T21:32:03.378Z,20.40
2022-09-01T21:36:05.160Z,20.40
2022-09-01T21:40:07.715Z,20.30
2022-09-01T21:44:09.263Z,20.20
2022-09-01T21:48:11.065Z,20.00
2022-09-01T21:52:12.300Z,20.00
2022-09-01T21:56:13.533Z,20.00
2022-09-01T22:00:21.310Z,20.00
2022-09-01T22:04:23.721Z,20.00
2022-09-01T22:08:25.296Z,20.00
2022-09-01T22:12:26.754Z,20.00
2022-09-01T22:16:28.431Z,20.00
2022-09-01T22:20:31.228Z,19.80
2022-09-01T22:24:32.569Z,19.70
2022-09-01T22:28:34.230Z,19.50
2022-09-01T22:32:38.165Z,19.40
2022-09-01T22:36:42.884Z,19.40
2022-09-01T22:40:54.250Z,19.20
2022-09-01T22:44:55.732Z,19.10
2022-09-01T22:48:58.798Z,19.10
2022-09-01T22:53:00.073Z,19.00
2022-09-01T22:57:01.695Z,19.00
2022-09-01T23:01:03.257Z,18.90
2022-09-01T23:05:06.135Z,18.90
2022-09-01T23:09:07.921Z,18.90
2022-09-01T23:13:09.341Z,18.90
2022-09-01T23:17:10.561Z,18.90
2022-09-01T23:21:15.290Z,18.90
2022-09-01T23:25:16.911Z,18.80
2022-09-01T23:29:18.150Z,18.70
2022-09-01T23:33:21.845Z,18.70
2022-09-01T23:37:23.100Z,18.70
2022-09-01T23:41:31.119Z,18.70
2022-09-01T23:45:39.242Z,18.70
2022-09-01T23:49:40.863Z,18.60
2022-09-01T23:53:42.078Z,18.50
2022-09-01T23:57:43.307Z,18.30
